createdAt,value
2019-01-24T00:02:10.973Z,20.80
2019-01-24T00:04:39.258Z,19.73
2019-01-24T00:07:07.476Z,21.97
2019-01-24T00:09:35.733Z,20.83
2019-01-24T00:12:04.070Z,22.47
2019-01-24T00:14:32.305Z,21.00
2019-01-24T00:17:00.562Z,21.40
2019-01-24T00:19:28.809Z,20.03
2019-01-24T00:21:57.036Z,21.13
2019-01-24T00:24:25.292Z,20.47
2019-01-24T00:26:53.513Z,17.07
2019-01-24T00:29:21.769Z,19.67
2019-01-24T00:31:50.026Z,21.47
2019-01-24T00:34:23.239Z,22.27
2019-01-24T00:36:48.150Z,20.87
2019-01-24T00:39:16.400Z,19.90
2019-01-24T00:41:44.660Z,20.43
2019-01-24T00:44:12.906Z,19.00
2019-01-24T00:46:41.135Z,22.23
2019-01-24T00:49:09.451Z,19.67
2019-01-24T00:51:37.664Z,21.03
2019-01-24T00:54:05.958Z,19.60
2019-01-24T00:56:34.180Z,20.97
2019-01-24T00:59:02.396Z,20.43
2019-01-24T01:01:30.717Z,20.27
2019-01-24T01:03:58.982Z,20.20
2019-01-24T01:06:27.229Z,22.37
2019-01-24T01:08:55.528Z,19.97
2019-01-24T01:11:23.811Z,21.47
2019-01-24T01:13:52.096Z,21.10
2019-01-24T01:16:20.424Z,21.77
2019-01-24T01:18:48.649Z,22.30
2019-01-24T01:21:16.934Z,21.60
2019-01-24T01:23:45.153Z,20.60
2019-01-24T01:26:13.442Z,19.77
2019-01-24T01:28:41.660Z,20.00
2019-01-24T01:31:09.912Z,20.63
2019-01-24T01:33:38.242Z,21.27
2019-01-24T01:36:06.685Z,22.53
2019-01-24T01:38:34.908Z,20.57
2019-01-24T01:41:03.261Z,20.47
2019-01-24T01:43:31.480Z,22.13
2019-01-24T01:45:59.736Z,22.93
2019-01-24T01:48:27.952Z,21.97
2019-01-24T01:50:56.238Z,23.17
2019-01-24T01:53:24.490Z,20.87
2019-01-24T01:55:52.737Z,23.23
2019-01-24T01:58:20.960Z,22.10
2019-01-24T02:00:49.280Z,21.47
2019-01-24T02:03:17.540Z,21.70
2019-01-24T02:05:45.785Z,21.20
2019-01-24T02:08:14.008Z,22.10
2019-01-24T02:10:42.268Z,22.83
2019-01-24T02:13:10.492Z,24.07
2019-01-24T02:15:38.762Z,23.57
2019-01-24T02:18:13.348Z,22.37
2019-01-24T02:20:41.773Z,22.10
2019-01-24T02:23:09.992Z,22.07
2019-01-24T02:25:38.311Z,23.70
2019-01-24T02:28:06.608Z,22.87
2019-01-24T02:30:35.029Z,22.10
2019-01-24T02:33:03.277Z,24.60
2019-01-24T02:35:31.495Z,22.20
2019-01-24T02:37:59.745Z,24.03
2019-01-24T02:40:27.969Z,22.83
2019-01-24T02:42:56.288Z,23.77
2019-01-24T02:45:24.581Z,23.57
2019-01-24T02:47:52.894Z,21.87
2019-01-24T02:50:21.888Z,24.53
2019-01-24T02:52:50.225Z,21.83
2019-01-24T02:55:18.434Z,21.40
2019-01-24T02:57:46.698Z,23.00
2019-01-24T03:00:18.583Z,23.13
2019-01-24T03:02:46.905Z,23.83
2019-01-24T03:05:16.663Z,22.57
2019-01-24T03:07:44.979Z,21.63
2019-01-24T03:10:13.968Z,22.43
2019-01-24T03:12:42.297Z,22.53
2019-01-24T03:15:11.783Z,22.80
2019-01-24T03:17:40.047Z,23.17
2019-01-24T03:20:09.436Z,23.37
2019-01-24T03:22:37.727Z,22.93
2019-01-24T03:25:07.145Z,23.87
2019-01-24T03:27:35.365Z,24.23
2019-01-24T03:30:05.152Z,24.23
2019-01-24T03:32:33.445Z,22.53
2019-01-24T03:35:04.258Z,21.57
2019-01-24T03:37:31.569Z,24.23
2019-01-24T03:39:59.825Z,23.97
2019-01-24T03:42:28.126Z,21.87
2019-01-24T03:44:56.380Z,23.23
2019-01-24T03:47:24.602Z,23.20
2019-01-24T03:49:52.857Z,23.93
2019-01-24T03:52:21.077Z,22.97
2019-01-24T03:54:49.336Z,23.30
2019-01-24T03:57:17.823Z,22.27
2019-01-24T03:59:46.076Z,25.03
2019-01-24T04:02:14.364Z,27.77
2019-01-24T04:04:42.685Z,24.33
2019-01-24T04:07:10.913Z,24.20
2019-01-24T04:09:39.136Z,22.50
2019-01-24T04:12:08.487Z,25.20
2019-01-24T04:14:36.816Z,24.37
2019-01-24T04:17:05.068Z,24.93
2019-01-24T04:19:33.284Z,25.33
2019-01-24T04:22:01.544Z,22.63
2019-01-24T04:24:29.766Z,24.30
2019-01-24T04:26:58.034Z,21.73
2019-01-24T04:29:26.239Z,24.27
2019-01-24T04:31:54.494Z,25.47
2019-01-24T04:34:22.712Z,24.00
2019-01-24T04:36:50.961Z,26.47
2019-01-24T04:39:19.180Z,23.20
2019-01-24T04:41:47.434Z,23.93
2019-01-24T04:44:15.649Z,22.70
2019-01-24T04:46:43.900Z,23.33
2019-01-24T04:49:12.125Z,23.90
2019-01-24T04:51:40.381Z,22.87
2019-01-24T04:54:08.606Z,23.47
2019-01-24T04:56:36.878Z,25.23
2019-01-24T04:59:05.174Z,25.40
2019-01-24T05:01:33.398Z,23.40
2019-01-24T05:04:01.652Z,24.73
2019-01-24T05:06:29.970Z,23.70
2019-01-24T05:08:58.221Z,24.00
2019-01-24T05:11:26.446Z,22.70
2019-01-24T05:13:54.708Z,25.50
2019-01-24T05:16:22.933Z,24.60
2019-01-24T05:18:51.185Z,24.03
2019-01-24T05:21:19.473Z,23.63
2019-01-24T05:23:47.715Z,22.60
2019-01-24T05:26:15.939Z,24.03
2019-01-24T05:28:44.195Z,24.87
2019-01-24T05:31:12.416Z,23.27
2019-01-24T05:33:40.676Z,24.70
2019-01-24T05:36:08.893Z,22.87
2019-01-24T05:38:37.191Z,22.30
2019-01-24T05:41:05.446Z,23.57
2019-01-24T05:43:33.669Z,25.07
2019-01-24T05:46:01.984Z,23.53
2019-01-24T05:48:30.203Z,24.50
2019-01-24T05:50:58.456Z,24.60
2019-01-24T05:53:26.751Z,25.53
2019-01-24T05:55:54.996Z,24.33
2019-01-24T05:58:23.220Z,24.90
2019-01-24T06:00:51.646Z,24.40
2019-01-24T06:03:19.870Z,23.80
2019-01-24T06:05:48.116Z,23.03
2019-01-24T06:08:16.340Z,26.90
2019-01-24T06:10:44.595Z,24.50
2019-01-24T06:13:12.812Z,24.37
2019-01-24T06:15:41.067Z,24.83
2019-01-24T06:18:09.289Z,22.93
2019-01-24T06:20:37.540Z,22.57
2019-01-24T06:23:05.855Z,23.50
2019-01-24T06:25:34.106Z,23.50
2019-01-24T06:28:02.333Z,24.47
2019-01-24T06:30:30.645Z,21.27
2019-01-24T06:32:58.867Z,22.77
2019-01-24T06:35:27.208Z,22.57
2019-01-24T06:37:55.428Z,22.30
2019-01-24T06:40:23.686Z,24.33
2019-01-24T06:42:51.907Z,22.80
2019-01-24T06:45:21.227Z,23.23
2019-01-24T06:47:49.452Z,23.30
2019-01-24T06:50:18.402Z,23.17
2019-01-24T06:52:46.960Z,24.47
2019-01-24T06:55:19.472Z,22.73
2019-01-24T06:57:47.801Z,22.53
2019-01-24T07:00:17.556Z,21.20
2019-01-24T07:02:45.867Z,24.90
2019-01-24T07:05:14.159Z,24.80
2019-01-24T07:07:42.412Z,24.03
2019-01-24T07:10:12.096Z,23.43
2019-01-24T07:12:40.416Z,24.60
2019-01-24T07:15:09.904Z,24.57
2019-01-24T07:17:38.160Z,23.90
2019-01-24T07:20:07.913Z,22.80
2019-01-24T07:22:36.159Z,22.17
2019-01-24T07:25:05.920Z,23.03
2019-01-24T07:27:34.212Z,23.30
2019-01-24T07:30:02.523Z,24.90
2019-01-24T07:32:30.768Z,23.00
2019-01-24T07:34:59.137Z,23.90
2019-01-24T07:37:27.519Z,23.63
2019-01-24T07:39:55.723Z,22.97
2019-01-24T07:42:23.947Z,23.33
2019-01-24T07:44:52.187Z,25.03
2019-01-24T07:47:20.417Z,22.80
2019-01-24T07:49:48.660Z,23.60
2019-01-24T07:52:16.884Z,25.63
2019-01-24T07:54:45.128Z,23.33
2019-01-24T07:57:13.347Z,22.27
2019-01-24T07:59:41.603Z,24.47
2019-01-24T08:02:09.830Z,23.87
2019-01-24T08:04:38.087Z,25.87
2019-01-24T08:07:06.303Z,24.90
2019-01-24T08:09:34.619Z,24.37
2019-01-24T08:12:02.839Z,25.33
2019-01-24T08:14:31.101Z,22.33
2019-01-24T08:16:59.316Z,24.73
2019-01-24T08:19:27.564Z,23.27
2019-01-24T08:21:55.785Z,22.53
2019-01-24T08:24:24.043Z,24.80
2019-01-24T08:26:52.255Z,26.03
2019-01-24T08:29:20.508Z,24.37
2019-01-24T08:31:48.737Z,25.10
2019-01-24T08:34:16.993Z,24.70
2019-01-24T08:36:45.217Z,24.93
2019-01-24T08:39:13.467Z,26.63
2019-01-24T08:41:41.691Z,25.70
2019-01-24T08:44:09.952Z,24.57
2019-01-24T08:46:38.180Z,25.10
2019-01-24T08:49:06.400Z,25.50
2019-01-24T08:51:34.650Z,23.77
2019-01-24T08:54:02.864Z,22.47
2019-01-24T08:56:31.179Z,22.33
2019-01-24T08:58:59.401Z,23.40
2019-01-24T09:01:27.648Z,23.63
2019-01-24T09:03:55.872Z,26.57
2019-01-24T09:06:24.126Z,35.07
2019-01-24T09:08:52.352Z,24.77
2019-01-24T09:11:20.674Z,26.57
2019-01-24T09:13:48.896Z,25.47
2019-01-24T09:16:17.149Z,25.30
2019-01-24T09:18:45.373Z,23.90
2019-01-24T09:21:13.624Z,24.80
2019-01-24T09:23:41.872Z,25.10
2019-01-24T09:26:10.171Z,26.67
2019-01-24T09:28:38.398Z,25.13
2019-01-24T09:31:06.649Z,26.37
2019-01-24T09:33:34.866Z,25.77
2019-01-24T09:36:03.112Z,27.33
2019-01-24T09:38:31.340Z,26.83
2019-01-24T09:40:59.584Z,23.77
2019-01-24T09:43:27.808Z,26.83
2019-01-24T09:45:56.051Z,34.78
2019-01-24T09:48:24.344Z,27.37
2019-01-24T09:50:52.600Z,26.50
2019-01-24T09:53:20.821Z,26.43
2019-01-24T09:55:49.076Z,24.63
2019-01-24T09:58:17.304Z,26.03
2019-01-24T10:00:45.553Z,23.50
2019-01-24T10:03:13.772Z,24.37
2019-01-24T10:05:42.024Z,24.90
2019-01-24T10:08:10.243Z,23.20
2019-01-24T10:10:38.462Z,25.27
2019-01-24T10:13:06.784Z,23.63
2019-01-24T10:15:35.072Z,22.27
2019-01-24T10:18:03.395Z,22.27
2019-01-24T10:20:31.615Z,23.53
2019-01-24T10:22:59.874Z,23.23
2019-01-24T10:25:29.556Z,26.03
2019-01-24T10:27:57.976Z,19.23
2019-01-24T10:30:26.267Z,22.03
2019-01-24T10:32:54.993Z,25.30
2019-01-24T10:35:23.308Z,22.90
2019-01-24T10:37:51.636Z,22.43
2019-01-24T10:40:20.934Z,20.43
2019-01-24T10:42:49.249Z,22.93
2019-01-24T10:45:18.540Z,25.83
2019-01-24T10:47:47.160Z,21.30
2019-01-24T10:50:16.356Z,22.40
2019-01-24T10:52:44.606Z,23.10
2019-01-24T10:55:14.364Z,22.03
2019-01-24T10:57:42.686Z,20.43
2019-01-24T11:00:12.875Z,26.37
2019-01-24T11:02:41.120Z,22.07
2019-01-24T11:05:10.881Z,22.07
2019-01-24T11:07:39.141Z,21.30
2019-01-24T11:10:08.534Z,22.00
2019-01-24T11:12:36.784Z,20.80
2019-01-24T11:15:09.432Z,21.60
2019-01-24T11:17:37.684Z,20.70
2019-01-24T11:20:10.389Z,20.77
2019-01-24T11:22:38.642Z,21.93
2019-01-24T11:25:08.395Z,24.00
2019-01-24T11:27:36.652Z,21.67
2019-01-24T11:30:06.404Z,21.23
2019-01-24T11:32:34.719Z,22.37
2019-01-24T11:35:03.121Z,19.83
2019-01-24T11:37:31.367Z,22.40
2019-01-24T11:39:59.580Z,22.40
2019-01-24T11:42:27.832Z,21.43
2019-01-24T11:44:56.052Z,20.10
2019-01-24T11:47:24.301Z,21.90
2019-01-24T11:49:52.521Z,19.93
2019-01-24T11:52:20.809Z,16.80
2019-01-24T11:54:49.064Z,16.47
2019-01-24T11:57:17.284Z,21.50
2019-01-24T11:59:45.541Z,21.47
2019-01-24T12:02:13.834Z,23.00
2019-01-24T12:04:42.079Z,21.13
2019-01-24T12:07:10.374Z,21.30
2019-01-24T12:09:38.626Z,14.43
2019-01-24T12:12:06.920Z,20.03
2019-01-24T12:14:35.170Z,20.77
2019-01-24T12:17:03.533Z,19.70
2019-01-24T12:19:31.781Z,18.97
2019-01-24T12:22:00.009Z,19.87
2019-01-24T12:24:28.255Z,18.33
2019-01-24T12:26:56.482Z,18.43
2019-01-24T12:29:24.728Z,18.57
2019-01-24T12:31:52.947Z,20.70
2019-01-24T12:34:22.147Z,19.97
2019-01-24T12:36:50.423Z,16.80
2019-01-24T12:39:18.681Z,16.83
2019-01-24T12:41:46.907Z,18.43
2019-01-24T12:44:15.161Z,14.97
2019-01-24T12:46:43.381Z,17.63
2019-01-24T12:49:11.709Z,18.63
2019-01-24T12:51:39.936Z,20.77
2019-01-24T12:54:08.164Z,18.30
2019-01-24T12:56:36.410Z,19.27
2019-01-24T12:59:04.637Z,21.00
2019-01-24T13:01:32.884Z,17.73
2019-01-24T13:04:01.113Z,16.37
2019-01-24T13:06:29.368Z,16.50
2019-01-24T13:08:57.600Z,18.83
2019-01-24T13:11:25.856Z,18.13
2019-01-24T13:13:54.081Z,19.83
2019-01-24T13:16:22.407Z,17.93
2019-01-24T13:18:50.628Z,19.73
2019-01-24T13:21:18.886Z,17.37
2019-01-24T13:23:47.099Z,20.27
2019-01-24T13:26:15.352Z,19.07
2019-01-24T13:28:43.644Z,18.73
2019-01-24T13:31:11.900Z,17.60
2019-01-24T13:33:40.128Z,16.23
2019-01-24T13:36:08.733Z,16.37
2019-01-24T13:38:37.029Z,15.53
2019-01-24T13:41:05.569Z,17.33
2019-01-24T13:43:33.970Z,18.27
2019-01-24T13:46:02.255Z,17.53
2019-01-24T13:48:30.696Z,18.90
2019-01-24T13:50:58.987Z,16.47
2019-01-24T13:53:27.236Z,16.30
2019-01-24T13:55:55.813Z,17.50
2019-01-24T13:58:24.133Z,15.93
2019-01-24T14:00:52.520Z,17.50
2019-01-24T14:03:22.096Z,20.20
2019-01-24T14:05:50.493Z,18.90
2019-01-24T14:08:18.808Z,17.13
2019-01-24T14:10:47.098Z,17.93
2019-01-24T14:13:15.418Z,17.20
2019-01-24T14:15:43.632Z,17.77
2019-01-24T14:18:12.121Z,15.73
2019-01-24T14:20:40.582Z,16.37
2019-01-24T14:23:09.077Z,15.33
2019-01-24T14:25:37.372Z,16.37
2019-01-24T14:28:05.804Z,16.80
2019-01-24T14:30:34.172Z,16.77
2019-01-24T14:33:02.556Z,17.50
2019-01-24T14:35:31.053Z,16.43
2019-01-24T14:37:59.679Z,17.80
2019-01-24T14:40:27.986Z,17.57
2019-01-24T14:42:56.441Z,16.27
2019-01-24T14:45:25.507Z,18.27
2019-01-24T14:47:54.064Z,15.87
2019-01-24T14:50:23.919Z,16.60
2019-01-24T14:52:52.427Z,16.50
2019-01-24T14:55:20.737Z,16.87
2019-01-24T14:57:49.091Z,15.80
2019-01-24T15:00:22.204Z,17.97
2019-01-24T15:02:50.600Z,16.27
2019-01-24T15:05:19.028Z,18.23
2019-01-24T15:07:47.728Z,17.60
2019-01-24T15:10:16.317Z,15.97
2019-01-24T15:12:44.814Z,16.73
2019-01-24T15:15:14.538Z,17.67
2019-01-24T15:17:42.990Z,19.53
2019-01-24T15:20:12.600Z,19.13
2019-01-24T15:22:41.058Z,18.03
2019-01-24T15:25:11.080Z,17.23
2019-01-24T15:27:40.033Z,19.20
2019-01-24T15:30:10.188Z,16.67
2019-01-24T15:32:38.497Z,16.70
2019-01-24T15:35:07.259Z,16.70
2019-01-24T15:37:35.910Z,18.10
2019-01-24T15:40:06.252Z,17.40
2019-01-24T15:42:34.920Z,18.33
2019-01-24T15:45:03.634Z,18.67
2019-01-24T15:47:32.384Z,18.67
2019-01-24T15:50:01.210Z,18.10
2019-01-24T15:52:34.056Z,18.07
2019-01-24T15:55:00.320Z,17.37
2019-01-24T15:57:28.972Z,19.57
2019-01-24T15:59:57.596Z,18.43
2019-01-24T16:02:26.257Z,20.40
2019-01-24T16:04:54.928Z,17.03
2019-01-24T16:07:23.639Z,18.40
2019-01-24T16:09:52.502Z,17.50
2019-01-24T16:12:21.116Z,18.80
2019-01-24T16:14:49.776Z,17.93
2019-01-24T16:17:18.389Z,19.10
2019-01-24T16:19:47.245Z,19.07
2019-01-24T16:22:16.188Z,19.07
2019-01-24T16:24:45.130Z,19.70
2019-01-24T16:27:13.977Z,18.83
2019-01-24T16:29:42.803Z,18.80
2019-01-24T16:32:11.730Z,18.13
2019-01-24T16:34:40.590Z,20.10
2019-01-24T16:37:09.508Z,18.30
2019-01-24T16:39:38.269Z,21.17
2019-01-24T16:42:07.187Z,24.27
2019-01-24T16:44:36.151Z,26.40
2019-01-24T16:47:05.273Z,23.90
2019-01-24T16:49:34.132Z,21.53
2019-01-24T16:52:03.055Z,18.10
2019-01-24T16:54:31.916Z,18.37
2019-01-24T16:57:00.940Z,19.03
2019-01-24T16:59:29.885Z,19.23
2019-01-24T17:01:59.224Z,18.60
2019-01-24T17:04:28.094Z,20.43
2019-01-24T17:06:57.345Z,20.57
2019-01-24T17:09:26.188Z,20.10
2019-01-24T17:11:55.068Z,20.67
2019-01-24T17:14:23.890Z,17.67
2019-01-24T17:16:52.544Z,19.30
2019-01-24T17:19:21.459Z,18.70
2019-01-24T17:21:50.324Z,18.60
2019-01-24T17:24:19.539Z,19.00
2019-01-24T17:26:48.411Z,19.67
2019-01-24T17:29:17.629Z,20.17
2019-01-24T17:31:46.909Z,20.90
2019-01-24T17:34:16.238Z,21.07
2019-01-24T17:36:45.204Z,19.93
2019-01-24T17:39:14.124Z,17.33
2019-01-24T17:41:42.983Z,20.07
2019-01-24T17:44:11.905Z,20.13
2019-01-24T17:46:40.872Z,20.67
2019-01-24T17:49:09.888Z,21.43
2019-01-24T17:51:38.748Z,21.43
2019-01-24T17:54:07.669Z,22.63
2019-01-24T17:56:36.731Z,22.60
2019-01-24T17:59:06.066Z,20.17
2019-01-24T18:01:35.337Z,19.37
2019-01-24T18:04:04.297Z,22.87
2019-01-24T18:06:33.216Z,21.80
2019-01-24T18:09:02.421Z,21.70
2019-01-24T18:11:31.643Z,20.57
2019-01-24T18:14:00.908Z,22.00
2019-01-24T18:16:30.339Z,22.03
2019-01-24T18:18:59.410Z,21.87
2019-01-24T18:21:28.344Z,21.20
2019-01-24T18:23:57.601Z,21.40
2019-01-24T18:26:26.925Z,21.77
2019-01-24T18:28:56.196Z,21.80
2019-01-24T18:31:25.421Z,21.97
2019-01-24T18:33:54.600Z,22.23
2019-01-24T18:36:23.928Z,22.27
2019-01-24T18:38:53.091Z,21.50
2019-01-24T18:41:22.016Z,22.97
2019-01-24T18:43:51.285Z,24.47
2019-01-24T18:46:20.617Z,24.13
2019-01-24T18:48:49.888Z,24.23
2019-01-24T18:51:19.314Z,24.80
2019-01-24T18:53:48.585Z,23.57
2019-01-24T18:56:17.612Z,21.53
2019-01-24T18:58:46.876Z,23.90
2019-01-24T19:01:16.208Z,24.57
2019-01-24T19:03:45.584Z,22.30
2019-01-24T19:06:15.015Z,22.70
2019-01-24T19:08:46.055Z,23.03
2019-01-24T19:11:15.454Z,23.23
2019-01-24T19:13:44.525Z,22.27
2019-01-24T19:16:13.948Z,23.80
2019-01-24T19:18:43.224Z,22.20
2019-01-24T19:21:12.651Z,25.03
2019-01-24T19:23:42.129Z,23.13
2019-01-24T19:26:11.665Z,26.23
2019-01-24T19:28:40.931Z,22.93
2019-01-24T19:31:10.033Z,23.87
2019-01-24T19:33:39.457Z,23.23
2019-01-24T19:36:09.032Z,26.03
2019-01-24T19:38:38.369Z,26.00
2019-01-24T19:41:07.741Z,24.47
2019-01-24T19:43:37.270Z,24.77
2019-01-24T19:46:06.548Z,23.20
2019-01-24T19:48:35.972Z,24.93
2019-01-24T19:51:05.548Z,25.23
2019-01-24T19:53:34.885Z,23.53
2019-01-24T19:56:04.157Z,21.77
2019-01-24T19:58:33.181Z,23.50
2019-01-24T20:01:02.753Z,24.37
2019-01-24T20:03:31.986Z,25.33
2019-01-24T20:06:01.252Z,22.70
2019-01-24T20:08:30.586Z,23.27
2019-01-24T20:10:59.851Z,18.70
2019-01-24T20:13:29.286Z,22.70
2019-01-24T20:15:58.560Z,20.23
2019-01-24T20:18:27.888Z,16.03
2019-01-24T20:20:57.352Z,26.37
2019-01-24T20:23:26.688Z,24.27
2019-01-24T20:25:55.965Z,22.07
2019-01-24T20:28:25.287Z,24.87
2019-01-24T20:30:54.261Z,25.93
2019-01-24T20:33:23.588Z,16.10
2019-01-24T20:35:53.576Z,19.87
2019-01-24T20:38:23.140Z,24.47
2019-01-24T20:40:52.380Z,21.30
2019-01-24T20:43:21.807Z,14.70
2019-01-24T20:45:50.872Z,24.80
2019-01-24T20:48:20.097Z,23.13
2019-01-24T20:50:48.968Z,25.73
2019-01-24T20:53:17.884Z,22.53
2019-01-24T20:55:46.952Z,24.80
2019-01-24T20:58:16.172Z,24.40
2019-01-24T21:00:44.935Z,27.47
2019-01-24T21:03:14.826Z,22.40
2019-01-24T21:05:43.740Z,25.90
2019-01-24T21:08:12.668Z,25.60
2019-01-24T21:10:41.820Z,25.20
2019-01-24T21:13:10.645Z,22.93
2019-01-24T21:15:39.507Z,16.43
2019-01-24T21:18:08.431Z,19.87
2019-01-24T21:20:38.009Z,17.80
2019-01-24T21:23:06.899Z,13.83
2019-01-24T21:25:35.716Z,27.87
2019-01-24T21:28:04.980Z,25.80
2019-01-24T21:30:37.592Z,16.03
2019-01-24T21:33:06.970Z,24.63
2019-01-24T21:35:35.584Z,23.20
2019-01-24T21:38:05.568Z,26.60
2019-01-24T21:40:34.181Z,17.97
2019-01-24T21:43:02.735Z,24.80
2019-01-24T21:45:32.980Z,26.83
2019-01-24T21:48:01.535Z,17.07
2019-01-24T21:50:33.736Z,15.77
2019-01-24T21:53:02.496Z,23.53
2019-01-24T21:55:31.412Z,25.60
2019-01-24T21:58:00.403Z,25.87
2019-01-24T22:00:29.804Z,16.03
2019-01-24T22:02:58.679Z,20.27
2019-01-24T22:05:27.404Z,17.20
2019-01-24T22:07:55.946Z,19.90
2019-01-24T22:10:25.371Z,27.50
2019-01-24T22:12:54.028Z,22.60
2019-01-24T22:15:23.877Z,22.77
2019-01-24T22:17:52.236Z,24.43
2019-01-24T22:20:20.600Z,19.97
2019-01-24T22:22:48.928Z,25.33
2019-01-24T22:25:21.678Z,24.50
2019-01-24T22:27:49.925Z,23.87
2019-01-24T22:30:19.415Z,23.80
2019-01-24T22:32:47.735Z,26.90
2019-01-24T22:35:16.032Z,22.33
2019-01-24T22:37:44.344Z,24.87
2019-01-24T22:40:13.709Z,26.83
2019-01-24T22:42:43.121Z,20.50
2019-01-24T22:45:15.874Z,26.57
2019-01-24T22:47:44.191Z,25.60
2019-01-24T22:50:13.680Z,26.13
2019-01-24T22:52:41.999Z,24.80
2019-01-24T22:55:10.896Z,27.40
2019-01-24T22:57:39.144Z,24.30
2019-01-24T23:00:08.900Z,23.30
2019-01-24T23:02:37.320Z,25.97
2019-01-24T23:05:07.012Z,21.47
2019-01-24T23:07:35.264Z,26.00
2019-01-24T23:10:05.064Z,23.37
2019-01-24T23:12:33.316Z,15.23
2019-01-24T23:15:01.546Z,15.60
2019-01-24T23:17:29.769Z,22.30
2019-01-24T23:19:58.021Z,24.30
2019-01-24T23:22:26.235Z,22.73
2019-01-24T23:24:54.488Z,25.87
2019-01-24T23:27:22.708Z,24.83
2019-01-24T23:29:50.958Z,22.90
2019-01-24T23:32:19.176Z,24.63
2019-01-24T23:34:48.352Z,26.17
2019-01-24T23:37:16.574Z,14.27
2019-01-24T23:39:52.340Z,25.13
2019-01-24T23:42:17.664Z,27.00
2019-01-24T23:44:45.980Z,26.60
2019-01-24T23:47:14.199Z,16.17
2019-01-24T23:49:42.448Z,21.73
2019-01-24T23:52:10.865Z,18.63
2019-01-24T23:54:39.220Z,22.57
2019-01-24T23:57:07.440Z,13.93
2019-01-24T23:59:35.696Z,14.43
